Time;durP1;ratioP1;P1;durP2;ratioP2;P2;SDS_P1;SDS_P2;PMS_P1;PMS_P2;Temp;Humidity;BMP_temperature;BMP_pressure;BME280_temperature;BME280_humidity;BME280_pressure;Samples;Min_cycle;Max_cycle;Signal;HPM_P1;HPM_P2
2022/09/05 03:03:16;;;;;;;0.83;0.63;;;25.30;44.90;;;;;;4897890;28;45233;-68
2022/09/05 03:05:56;;;;;;;1.10;0.60;;;25.30;45.00;;;;;;4912729;28;45482;-65
2022/09/05 03:08:39;;;;;;;0.60;0.60;;;25.30;44.90;;;;;;4914051;28;45512;-66
2022/09/05 03:11:43;;;;;;;0.70;0.60;;;25.30;44.90;;;;;;4909683;28;47273;-68
2022/09/05 03:14:40;;;;;;;1.08;0.80;;;25.30;44.90;;;;;;4913019;28;45219;-69
2022/09/05 03:17:27;;;;;;;1.50;0.93;;;25.30;44.90;;;;;;4914435;28;45011;-68
2022/09/05 03:19:53;;;;;;;0.60;0.60;;;25.30;45.00;;;;;;4911240;28;45021;-67
2022/09/05 03:22:37;;;;;;;1.27;0.80;;;25.30;44.90;;;;;;4912578;28;45313;-68
2022/09/05 03:25:03;;;;;;;0.68;0.63;;;25.30;44.90;;;;;;4912484;28;45298;-67
2022/09/05 03:27:50;;;;;;;0.60;0.60;;;25.30;44.90;;;;;;4913697;28;44731;-66
2022/09/05 03:30:19;;;;;;;0.85;0.70;;;25.30;44.90;;;;;;4910703;28;45875;-68
2022/09/05 03:32:53;;;;;;;2.17;0.60;;;25.30;44.90;;;;;;4913457;28;45310;-66
2022/09/05 03:36:12;;;;;;;0.85;0.70;;;25.30;45.50;;;;;;4914842;28;45007;-66
2022/09/05 03:38:53;;;;;;;0.65;0.63;;;25.30;44.90;;;;;;4836583;29;45324;-65
2022/09/05 03:41:33;;;;;;;0.70;0.70;;;25.30;44.90;;;;;;4822652;29;45564;-67
2022/09/05 03:44:18;;;;;;;0.52;0.52;;;25.30;44.90;;;;;;4883915;28;45182;-66
2022/09/05 03:46:56;;;;;;;0.70;0.57;;;25.30;44.90;;;;;;4919725;28;45545;-67
2022/09/05 03:49:30;;;;;;;0.80;0.80;;;25.30;44.90;;;;;;4883592;28;45615;-67
2022/09/05 03:52:13;;;;;;;0.60;0.60;;;25.30;44.90;;;;;;4888353;28;47427;-67
2022/09/05 03:54:42;;;;;;;;;;;25.30;44.90;;;;;;4912508;28;45614;-66
2022/09/05 03:57:32;;;;;;;0.70;0.65;;;25.30;44.90;;;;;;4922523;28;45258;-68
2022/09/05 04:00:08;;;;;;;0.88;0.77;;;25.30;44.90;;;;;;4887785;28;45360;-67
2022/09/05 04:02:39;;;;;;;0.60;0.60;;;25.30;44.90;;;;;;4914403;28;45056;-66
2022/09/05 04:05:19;;;;;;;0.98;0.70;;;25.30;44.90;;;;;;4920907;28;47303;-66
2022/09/05 04:07:53;;;;;;;0.50;0.50;;;25.30;44.80;;;;;;4918492;28;45298;-66
2022/09/05 04:10:25;;;;;;;0.65;0.65;;;25.30;44.90;;;;;;4918297;28;44752;-67
2022/09/05 04:13:01;;;;;;;0.80;0.80;;;25.30;44.90;;;;;;4914553;28;45653;-66
2022/09/05 04:15:47;;;;;;;0.60;0.60;;;25.30;44.90;;;;;;4885097;28;46189;-66
2022/09/05 04:18:19;;;;;;;0.85;0.57;;;25.30;44.90;;;;;;4904548;28;45397;-66
2022/09/05 04:21:04;;;;;;;1.00;0.70;;;25.20;44.80;;;;;;4897300;28;45165;-66
2022/09/05 04:23:45;;;;;;;0.90;0.60;;;25.30;44.90;;;;;;4917327;28;45189;-66
2022/09/05 04:26:47;;;;;;;0.70;0.60;;;25.30;44.90;;;;;;4914363;28;46209;-67
2022/09/05 04:29:22;;;;;;;0.40;0.40;;;25.20;44.80;;;;;;4915974;28;45481;-67
2022/09/05 04:31:52;;;;;;;0.70;0.70;;;25.20;44.80;;;;;;4909250;28;45263;-67
2022/09/05 04:34:51;;;;;;;0.60;0.60;;;25.20;44.90;;;;;;4912225;28;45535;-67
2022/09/05 04:37:47;;;;;;;0.60;0.60;;;25.20;44.80;;;;;;4912583;28;45193;-66
2022/09/05 04:40:38;;;;;;;0.75;0.70;;;25.20;44.80;;;;;;4901449;28;45069;-66
2022/09/05 04:43:21;;;;;;;0.88;0.77;;;25.20;44.90;;;;;;4915651;28;45020;-66
2022/09/05 04:45:52;;;;;;;;;;;25.20;44.90;;;;;;4914600;28;45450;-66
2022/09/05 04:48:21;;;;;;;0.60;0.60;;;25.20;45.00;;;;;;4916287;28;46479;-66
2022/09/05 04:51:09;;;;;;;1.80;0.80;;;25.20;44.90;;;;;;4901476;28;44944;-67
2022/09/05 04:53:43;;;;;;;0.98;0.55;;;25.20;44.90;;;;;;4883168;28;45296;-66
2022/09/05 04:56:13;;;;;;;0.60;0.60;;;25.20;44.90;;;;;;4915674;28;45237;-67
2022/09/05 04:58:42;;;;;;;1.40;0.60;;;25.20;44.90;;;;;;4888568;28;45639;-67
2022/09/05 05:01:22;;;;;;;0.50;0.50;;;25.20;44.80;;;;;;4884068;28;45589;-65
2022/09/05 05:03:47;;;;;;;0.73;0.60;;;25.20;44.80;;;;;;4912035;28;45017;-68
2022/09/05 05:06:28;;;;;;;1.35;0.75;;;25.20;44.90;;;;;;4897101;28;45101;-66
2022/09/05 05:09:05;;;;;;;0.80;0.80;;;25.20;44.80;;;;;;4912168;28;44967;-66
2022/09/05 05:11:37;;;;;;;0.60;0.60;;;25.20;44.80;;;;;;4883842;28;45535;-66
2022/09/05 05:14:25;;;;;;;0.68;0.60;;;25.20;44.90;;;;;;4917020;28;45605;-66
2022/09/05 05:17:05;;;;;;;0.40;0.40;;;25.20;44.90;;;;;;4890321;28;45193;-65
2022/09/05 05:19:43;;;;;;;0.70;0.70;;;25.20;44.90;;;;;;4900163;28;45885;-65
2022/09/05 05:22:13;;;;;;;1.42;0.60;;;25.20;44.90;;;;;;4895153;28;45360;-67
2022/09/05 05:24:46;;;;;;;2.38;0.68;;;25.20;44.90;;;;;;4915349;28;45022;-66
2022/09/05 05:27:20;;;;;;;0.93;0.63;;;25.20;44.80;;;;;;4914597;28;45441;-66
2022/09/05 05:29:47;;;;;;;0.63;0.60;;;25.30;44.80;;;;;;4916123;28;45699;-67
2022/09/05 05:32:16;;;;;;;0.80;0.80;;;25.30;44.80;;;;;;4914961;28;45210;-66
2022/09/05 05:34:45;;;;;;;0.98;0.50;;;25.30;44.70;;;;;;4883342;28;45493;-67
2022/09/05 05:37:28;;;;;;;0.85;0.85;;;25.30;44.70;;;;;;4899710;28;45278;-65
2022/09/05 05:40:13;;;;;;;0.88;0.70;;;25.40;44.70;;;;;;4896208;28;45861;-67
2022/09/05 05:42:39;;;;;;;0.57;0.57;;;25.40;44.60;;;;;;4913114;28;45435;-65
2022/09/05 05:45:15;;;;;;;0.70;0.70;;;25.40;44.60;;;;;;4911205;28;45414;-66
2022/09/05 05:47:44;;;;;;;0.73;0.70;;;25.50;44.50;;;;;;4882870;28;45020;-65
2022/09/05 05:50:29;;;;;;;0.80;0.70;;;25.60;44.30;;;;;;4900061;28;46204;-66
2022/09/05 05:53:37;;;;;;;0.70;0.57;;;25.70;44.10;;;;;;4919835;28;45427;-66
2022/09/05 05:56:11;;;;;;;0.60;0.60;;;25.80;43.90;;;;;;4914213;28;45273;-66
2022/09/05 05:59:15;;;;;;;;;;;25.90;44.40;;;;;;4910252;28;45338;-63
2022/09/05 06:01:46;;;;;;;;;;;25.90;43.60;;;;;;4895025;28;45235;-62
2022/09/05 06:04:27;;;;;;;;;;;25.90;43.70;;;;;;4879309;29;45573;-64
2022/09/05 06:06:55;;;;;;;;;;;25.80;43.70;;;;;;4908002;28;45386;-66
2022/09/05 06:09:32;;;;;;;;;;;25.90;43.80;;;;;;4899727;28;45475;-61
2022/09/05 06:12:37;;;;;;;1.25;0.73;;;25.90;43.80;;;;;;4898584;28;45964;-63
2022/09/05 06:15:12;;;;;;;1.33;1.10;;;26.00;44.00;;;;;;4876366;28;44729;-62
2022/09/05 06:17:37;;;;;;;2.70;1.15;;;26.10;44.10;;;;;;4916442;28;44897;-60
2022/09/05 06:20:13;;;;;;;;;;;26.10;44.30;;;;;;4922111;28;45644;-63
2022/09/05 06:22:44;;;;;;;;;;;26.10;45.20;;;;;;4920812;28;46130;-63
2022/09/05 06:25:28;;;;;;;;;;;26.10;45.60;;;;;;4915013;28;45417;-62
2022/09/05 06:27:57;;;;;;;;;;;26.10;45.50;;;;;;4913475;28;45534;-62
2022/09/05 06:30:22;;;;;;;;;;;26.10;45.80;;;;;;4912405;28;44906;-63
2022/09/05 06:32:57;;;;;;;;;;;26.10;46.00;;;;;;4916584;28;46214;-58
2022/09/05 06:35:29;;;;;;;;;;;26.00;46.20;;;;;;4923981;28;45531;-61
2022/09/05 06:37:57;;;;;;;;;;;26.10;46.20;;;;;;4924233;28;45141;-60
2022/09/05 06:40:31;;;;;;;;;;;26.00;46.40;;;;;;4914874;28;45469;-61
2022/09/05 06:43:08;;;;;;;;;;;26.10;46.80;;;;;;4921215;28;46197;-62
2022/09/05 06:45:34;;;;;;;;;;;26.00;46.90;;;;;;4913248;28;44704;-60
2022/09/05 06:48:15;;;;;;;;;;;26.00;46.90;;;;;;4920678;28;45519;-60
2022/09/05 06:50:59;;;;;;;;;;;26.00;47.00;;;;;;4908525;28;45327;-62
2022/09/05 06:53:43;;;;;;;;;;;26.10;47.10;;;;;;4912957;28;46213;-64
2022/09/05 06:56:15;;;;;;;;;;;26.10;47.20;;;;;;4920238;28;45161;-61
2022/09/05 06:58:52;;;;;;;;;;;26.10;47.20;;;;;;4911359;28;45634;-62
2022/09/05 07:01:41;;;;;;;;;;;26.10;46.90;;;;;;4919330;28;45599;-63
2022/09/05 07:04:13;;;;;;;;;;;26.10;47.10;;;;;;4915374;28;46591;-63
2022/09/05 07:06:38;;;;;;;;;;;26.10;47.00;;;;;;4915311;28;45122;-60
2022/09/05 07:09:04;;;;;;;;;;;26.20;47.00;;;;;;4916479;28;45540;-61
2022/09/05 07:11:50;;;;;;;;;;;26.20;46.90;;;;;;4916311;28;45249;-63
2022/09/05 07:14:18;;;;;;;;;;;26.20;46.90;;;;;;4916415;28;48728;-61
2022/09/05 07:16:46;;;;;;;;;;;26.30;47.30;;;;;;4898545;28;45270;-61
2022/09/05 07:19:14;;;;;;;;;;;26.30;47.20;;;;;;4922771;28;45318;-62
2022/09/05 07:21:42;;;;;;;;;;;26.30;47.10;;;;;;4932078;28;45524;-61
2022/09/05 07:24:11;;;;;;;;;;;26.30;47.20;;;;;;4928688;28;46138;-62
2022/09/05 07:26:46;;;;;;;;;;;26.40;47.30;;;;;;4915871;28;45296;-61
2022/09/05 07:29:13;;;;;;;;;;;26.40;47.40;;;;;;4916981;28;45391;-62
2022/09/05 07:31:39;;;;;;;;;;;26.40;47.50;;;;;;4903396;28;44819;-61
2022/09/05 07:34:09;;;;;;;;;;;26.40;47.40;;;;;;4915473;28;46940;-61
2022/09/05 07:36:37;;;;;;;;;;;26.40;47.40;;;;;;4916499;28;45009;-61
2022/09/05 07:39:02;;;;;;;;;;;26.40;47.40;;;;;;4916888;28;45351;-62
2022/09/05 07:41:29;;;;;;;;;;;26.40;47.50;;;;;;4921431;28;45510;-62
2022/09/05 07:43:56;;;;;;;;;;;26.40;47.50;;;;;;4921289;28;45361;-64
2022/09/05 07:46:23;;;;;;;;;;;26.50;47.50;;;;;;4924782;28;44634;-61
2022/09/05 07:48:50;;;;;;;;;;;26.50;47.60;;;;;;4914483;28;45314;-63
2022/09/05 07:51:18;;;;;;;;;;;26.50;47.50;;;;;;4915685;28;45224;-61
2022/09/05 07:53:44;;;;;;;;;;;26.50;47.60;;;;;;4919337;28;45985;-62
2022/09/05 07:56:09;;;;;;;;;;;26.60;47.70;;;;;;4907031;28;45305;-62
2022/09/05 07:58:40;;;;;;;;;;;26.50;47.60;;;;;;4920171;28;45454;-61
2022/09/05 08:01:05;;;;;;;;;;;26.60;47.70;;;;;;4918192;28;45459;-62
2022/09/05 08:03:31;;;;;;;;;;;26.60;47.60;;;;;;4918125;28;46997;-62
2022/09/05 08:05:59;;;;;;;;;;;26.60;47.40;;;;;;4915239;28;44686;-61
2022/09/05 08:08:30;;;;;;;;;;;26.60;47.60;;;;;;4903684;28;45220;-62
2022/09/05 08:11:06;;;;;;;;;;;26.60;47.50;;;;;;4919630;28;45634;-60
2022/09/05 08:13:37;;;;;;;;;;;26.60;47.60;;;;;;4914940;28;45348;-61
2022/09/05 08:16:03;;;;;;;;;;;26.70;47.70;;;;;;4922245;28;45291;-61
2022/09/05 08:18:36;;;;;;;;;;;26.70;47.60;;;;;;4904454;28;45079;-62
2022/09/05 08:21:04;;;;;;;;;;;26.70;47.50;;;;;;4899949;28;45620;-62
2022/09/05 08:23:48;;;;;;;;;;;26.80;47.40;;;;;;4900216;28;45205;-63
2022/09/05 08:26:32;;;;;;;;;;;26.70;47.50;;;;;;4918305;28;44990;-61
2022/09/05 08:29:00;;;;;;;;;;;26.80;47.40;;;;;;4914686;28;46225;-62
2022/09/05 08:31:43;;;;;;;;;;;26.80;47.50;;;;;;4917125;28;45331;-61
2022/09/05 08:34:11;;;;;;;;;;;26.80;47.50;;;;;;4896046;28;46884;-63
2022/09/05 08:36:36;;;;;;;;;;;26.80;47.30;;;;;;4918496;28;45093;-59
2022/09/05 08:39:02;;;;;;;;;;;26.90;47.40;;;;;;4917237;28;45101;-61
2022/09/05 08:41:34;;;;;;;;;;;26.90;47.30;;;;;;4915553;28;45701;-61
2022/09/05 08:44:08;;;;;;;;;;;26.90;47.30;;;;;;4902693;28;45922;-61
2022/09/05 08:46:57;;;;;;;4.60;1.70;;;26.90;47.20;;;;;;4915562;28;45630;-63
2022/09/05 08:49:50;;;;;;;4.82;1.83;;;26.90;47.10;;;;;;4917166;28;44674;-62
2022/09/05 08:53:00;;;;;;;2.57;1.83;;;27.00;47.10;;;;;;4898876;28;45222;-60
2022/09/05 08:55:36;;;;;;;4.50;1.80;;;27.00;47.00;;;;;;4848373;29;45967;-62
2022/09/05 08:58:26;;;;;;;4.97;2.10;;;27.00;46.90;;;;;;4892846;28;45138;-59
2022/09/05 09:01:10;;;;;;;4.35;2.60;;;27.10;47.00;;;;;;4913659;28;45580;-62
2022/09/05 09:03:59;;;;;;;5.97;2.30;;;27.10;47.00;;;;;;4918150;28;45549;-63
2022/09/05 09:06:59;;;;;;;3.35;1.90;;;27.10;47.10;;;;;;4891825;28;46442;-61
2022/09/05 09:09:40;;;;;;;2.88;1.77;;;27.10;46.80;;;;;;4853273;28;45647;-61
2022/09/05 09:12:39;;;;;;;5.65;2.33;;;27.10;47.50;;;;;;4919343;28;45438;-61
2022/09/05 09:15:24;;;;;;;4.05;1.98;;;27.20;47.00;;;;;;4913518;28;45482;-62
2022/09/05 09:17:50;;;;;;;3.78;1.73;;;27.20;46.90;;;;;;4903442;28;46013;-63
2022/09/05 09:20:52;;;;;;;4.63;1.83;;;27.20;46.70;;;;;;4916698;28;45702;-61
2022/09/05 09:23:36;;;;;;;5.03;1.92;;;27.20;46.80;;;;;;4900406;28;45159;-61
2022/09/05 09:26:14;;;;;;;4.32;2.28;;;27.30;46.80;;;;;;4920293;28;45112;-63
2022/09/05 09:28:51;;;;;;;5.70;1.88;;;27.30;46.80;;;;;;4914160;28;45696;-62
2022/09/05 09:31:44;;;;;;;3.65;1.98;;;27.30;46.80;;;;;;4916512;28;45376;-62
2022/09/05 09:34:19;;;;;;;;;;;27.30;46.70;;;;;;4892770;28;45727;-62
2022/09/05 09:37:03;;;;;;;4.82;1.67;;;27.30;46.80;;;;;;4917177;28;45245;-62
2022/09/05 09:39:51;;;;;;;3.88;1.83;;;27.40;46.60;;;;;;4918738;28;47158;-64
2022/09/05 09:42:26;;;;;;;3.05;1.70;;;27.40;46.60;;;;;;4897371;28;45225;-62
2022/09/05 09:45:40;;;;;;;4.18;1.77;;;27.40;46.50;;;;;;4920224;28;45226;-61
2022/09/05 09:48:30;;;;;;;6.43;1.60;;;27.50;46.70;;;;;;4910143;28;44814;-62
2022/09/05 09:51:32;;;;;;;7.07;1.60;;;27.50;46.60;;;;;;4911063;28;46160;-63
2022/09/05 09:54:07;;;;;;;2.67;1.60;;;27.50;46.60;;;;;;4914270;28;45515;-61
2022/09/05 09:56:39;;;;;;;2.83;1.60;;;27.50;46.40;;;;;;4898478;28;45048;-62
2022/09/05 09:59:23;;;;;;;3.88;1.95;;;27.60;46.40;;;;;;4911397;28;45661;-63
2022/09/05 10:02:14;;;;;;;2.88;1.60;;;27.60;46.50;;;;;;4916633;28;45325;-61
2022/09/05 10:05:07;;;;;;;4.13;1.60;;;27.60;46.40;;;;;;4919799;28;44927;-63
2022/09/05 10:08:07;;;;;;;3.00;1.60;;;27.60;46.30;;;;;;4915441;28;45442;-60
2022/09/05 10:10:36;;;;;;;2.13;1.30;;;27.70;46.10;;;;;;4878105;28;45292;-61
2022/09/05 10:13:17;;;;;;;1.73;1.40;;;27.70;46.20;;;;;;4915691;28;46135;-62
2022/09/05 10:16:07;;;;;;;2.17;1.70;;;27.70;46.60;;;;;;4916449;28;45449;-65
2022/09/05 10:18:47;;;;;;;3.13;1.60;;;27.80;46.00;;;;;;4912452;28;44992;-67
2022/09/05 10:21:31;;;;;;;1.88;1.60;;;27.80;46.00;;;;;;4909730;28;45456;-67
2022/09/05 10:24:14;;;;;;;2.10;1.50;;;27.80;45.80;;;;;;4917978;28;46166;-65
2022/09/05 10:27:02;;;;;;;1.95;1.30;;;27.80;45.80;;;;;;4911712;28;45627;-70
2022/09/05 10:30:05;;;;;;;1.70;1.60;;;27.80;45.60;;;;;;4913830;28;45339;-65
2022/09/05 10:33:02;;;;;;;3.13;1.40;;;27.90;45.40;;;;;;4889448;28;45661;-66
2022/09/05 10:35:35;;;;;;;4.47;1.50;;;27.80;45.50;;;;;;4910035;28;46200;-64
2022/09/05 10:38:33;;;;;;;;;;;27.90;45.60;;;;;;4904765;28;44895;-67
2022/09/05 10:41:08;;;;;;;3.58;1.25;;;27.80;45.40;;;;;;4899800;28;45363;-69
2022/09/05 10:43:40;;;;;;;4.75;1.30;;;27.80;45.50;;;;;;4905803;28;45819;-66
2022/09/05 10:46:43;;;;;;;1.45;1.30;;;27.90;45.50;;;;;;4898002;28;45884;-64
2022/09/05 10:49:09;;;;;;;1.27;1.13;;;27.90;45.10;;;;;;4909070;28;45295;-64
2022/09/05 10:51:38;;;;;;;3.53;1.40;;;27.90;45.30;;;;;;4882535;28;45584;-61
2022/09/05 10:54:48;;;;;;;2.05;1.42;;;27.90;45.30;;;;;;4916053;28;44735;-61
2022/09/05 10:57:44;;;;;;;2.13;1.42;;;28.00;45.00;;;;;;4861775;28;46968;-63
2022/09/05 11:00:28;;;;;;;2.47;1.20;;;27.90;45.00;;;;;;4895881;28;44992;-58
2022/09/05 11:02:56;;;;;;;2.33;1.40;;;28.00;45.00;;;;;;4916440;28;44831;-60
2022/09/05 11:05:24;;;;;;;2.13;1.17;;;28.00;45.10;;;;;;4914541;28;45275;-60
2022/09/05 11:08:23;;;;;;;1.98;1.33;;;28.00;45.00;;;;;;4912780;28;46970;-60
2022/09/05 11:10:56;;;;;;;1.83;1.42;;;28.00;44.90;;;;;;4901889;28;45288;-61
2022/09/05 11:13:44;;;;;;;3.70;1.63;;;28.10;45.00;;;;;;4915967;28;45480;-60
2022/09/05 11:16:44;;;;;;;1.50;1.23;;;28.10;44.70;;;;;;4900111;28;45562;-60
2022/09/05 11:19:17;;;;;;;1.55;1.35;;;28.10;44.50;;;;;;4917545;28;47055;-61
2022/09/05 11:22:02;;;;;;;1.98;1.30;;;28.20;44.70;;;;;;4898752;28;45620;-60
2022/09/05 11:24:35;;;;;;;1.40;1.30;;;28.20;44.60;;;;;;4914521;28;45383;-60
2022/09/05 11:27:32;;;;;;;1.80;1.42;;;28.30;44.70;;;;;;4898933;28;45646;-61
2022/09/05 11:30:06;;;;;;;1.58;1.30;;;28.30;44.40;;;;;;4911244;28;46202;-60
2022/09/05 11:32:47;;;;;;;2.65;1.52;;;28.30;44.60;;;;;;4915194;28;45175;-59
2022/09/05 11:35:28;;;;;;;3.25;1.50;;;28.30;44.50;;;;;;4907945;28;45427;-60
2022/09/05 11:38:09;;;;;;;2.30;1.35;;;28.30;44.30;;;;;;4913908;28;45617;-61
2022/09/05 11:40:37;;;;;;;5.07;1.42;;;28.40;44.40;;;;;;4910650;28;46108;-60
2022/09/05 11:43:28;;;;;;;3.30;1.20;;;28.40;44.40;;;;;;4915335;28;44749;-58
2022/09/05 11:46:31;;;;;;;3.28;1.50;;;28.40;44.20;;;;;;4903696;28;45162;-58
2022/09/05 11:49:25;;;;;;;3.33;1.13;;;28.40;43.80;;;;;;4915863;28;45945;-59
2022/09/05 11:52:30;;;;;;;4.32;1.17;;;28.40;44.00;;;;;;4898865;28;46157;-59
2022/09/05 11:54:59;;;;;;;2.80;1.30;;;28.50;43.90;;;;;;4881372;28;44977;-61
2022/09/05 11:57:49;;;;;;;2.85;1.30;;;28.50;44.10;;;;;;4918731;28;45106;-60
2022/09/05 12:00:19;;;;;;;2.38;1.30;;;28.50;43.70;;;;;;4910758;28;45499;-60
2022/09/05 12:02:48;;;;;;;1.30;1.15;;;28.50;43.80;;;;;;4897205;28;46212;-61
2022/09/05 12:05:29;;;;;;;1.27;1.10;;;28.50;43.70;;;;;;4926839;28;45595;-59
2022/09/05 12:08:30;;;;;;;1.17;1.05;;;28.50;43.40;;;;;;4922975;28;45036;-60
2022/09/05 12:10:58;;;;;;;2.00;1.10;;;28.60;43.20;;;;;;4919353;28;45281;-60
2022/09/05 12:13:59;;;;;;;1.17;1.00;;;28.50;43.20;;;;;;4920993;28;45419;-61
2022/09/05 12:16:38;;;;;;;3.50;1.05;;;28.60;42.70;;;;;;4890400;28;45228;-61
2022/09/05 12:19:25;;;;;;;1.50;1.25;;;28.60;43.20;;;;;;4910098;28;44945;-58
2022/09/05 12:21:54;;;;;;;1.90;1.10;;;28.70;42.80;;;;;;4916725;28;45133;-58
2022/09/05 12:24:26;;;;;;;1.70;1.30;;;28.60;43.10;;;;;;4921931;28;45553;-61
2022/09/05 12:27:03;;;;;;;1.00;0.90;;;28.60;43.10;;;;;;4885505;28;45114;-63
2022/09/05 12:29:32;;;;;;;1.35;1.00;;;28.70;43.00;;;;;;4907690;28;44913;-63
2022/09/05 12:31:58;;;;;;;1.83;1.20;;;28.70;43.00;;;;;;4893696;28;45566;-60
2022/09/05 12:34:52;;;;;;;0.75;0.75;;;28.70;43.00;;;;;;4912257;28;47134;-62
2022/09/05 12:37:31;;;;;;;2.15;1.10;;;28.70;42.10;;;;;;4913873;28;45544;-61
2022/09/05 12:40:00;;;;;;;1.50;1.00;;;28.70;42.30;;;;;;4886556;28;45321;-60
2022/09/05 12:42:30;;;;;;;1.88;1.20;;;28.70;42.20;;;;;;4916550;28;44685;-62
2022/09/05 12:45:17;;;;;;;0.77;0.77;;;28.70;41.90;;;;;;4902770;28;46810;-61
2022/09/05 12:48:12;;;;;;;3.40;1.10;;;28.70;41.40;;;;;;4910797;28;45517;-60
2022/09/05 12:50:59;;;;;;;1.00;0.90;;;28.70;41.90;;;;;;4909290;28;44886;-61
2022/09/05 12:53:24;;;;;;;2.13;0.90;;;28.70;41.60;;;;;;4920798;28;45549;-60
2022/09/05 12:56:00;;;;;;;3.22;0.95;;;28.70;42.10;;;;;;4880548;28;46005;-60
2022/09/05 12:58:27;;;;;;;3.92;1.00;;;28.70;41.70;;;;;;4917241;28;45524;-60
2022/09/05 13:01:05;;;;;;;1.83;1.00;;;28.70;41.90;;;;;;4905330;28;45503;-59
2022/09/05 13:03:32;;;;;;;2.03;0.98;;;28.70;41.90;;;;;;4894195;28;45673;-61
2022/09/05 13:06:07;;;;;;;2.45;1.00;;;28.70;42.00;;;;;;4886573;28;46096;-58
2022/09/05 13:08:49;;;;;;;0.70;0.70;;;28.80;41.70;;;;;;4907781;28;45360;-61
2022/09/05 13:11:18;;;;;;;3.90;1.00;;;28.80;41.30;;;;;;4895766;28;45356;-60
2022/09/05 13:14:04;;;;;;;2.28;0.98;;;28.80;41.50;;;;;;4902882;28;45523;-60
2022/09/05 13:16:30;;;;;;;1.20;0.68;;;28.80;40.90;;;;;;4908665;28;46347;-61
2022/09/05 13:19:06;;;;;;;4.82;0.95;;;28.90;41.50;;;;;;4913306;28;45328;-58
2022/09/05 13:21:33;;;;;;;0.85;0.77;;;28.90;41.30;;;;;;4892424;28;45550;-60
2022/09/05 13:24:11;;;;;;;1.60;1.08;;;28.80;41.10;;;;;;4882735;28;45417;-61
2022/09/05 13:27:06;;;;;;;2.60;0.80;;;28.90;40.70;;;;;;4884006;28;46011;-58
2022/09/05 13:29:53;;;;;;;1.60;0.90;;;28.90;40.00;;;;;;4913898;28;45308;-62
2022/09/05 13:32:29;;;;;;;1.77;0.82;;;28.90;39.70;;;;;;4905717;28;45432;-59
2022/09/05 13:34:59;;;;;;;2.13;0.95;;;29.00;40.50;;;;;;4900251;28;45341;-61
2022/09/05 13:37:29;;;;;;;1.15;0.70;;;29.00;40.10;;;;;;4923103;28;46316;-60
2022/09/05 13:40:08;;;;;;;4.60;0.77;;;29.00;39.50;;;;;;4884492;29;45457;-59
2022/09/05 13:42:38;;;;;;;1.25;0.60;;;29.00;39.30;;;;;;4902386;28;45179;-60
2022/09/05 13:45:04;;;;;;;1.45;0.75;;;29.00;39.60;;;;;;4908084;28;45504;-60
2022/09/05 13:47:36;;;;;;;1.00;0.90;;;29.00;39.50;;;;;;4901457;28;46943;-60
2022/09/05 13:50:12;;;;;;;2.88;0.85;;;29.00;39.50;;;;;;4921142;28;45596;-61
2022/09/05 13:52:43;;;;;;;1.48;0.88;;;29.00;39.00;;;;;;4917336;28;45491;-58
2022/09/05 13:55:22;;;;;;;0.90;0.60;;;29.00;39.00;;;;;;4918830;28;45463;-61
2022/09/05 13:57:53;;;;;;;2.65;0.90;;;29.00;38.50;;;;;;4919637;28;45761;-59
2022/09/05 14:00:24;;;;;;;0.63;0.60;;;29.00;38.80;;;;;;4919553;28;45233;-58
2022/09/05 14:03:28;;;;;;;2.45;0.73;;;29.00;38.80;;;;;;4898535;28;45274;-60
2022/09/05 14:05:57;;;;;;;4.63;0.73;;;29.00;37.80;;;;;;4911198;28;45819;-60
2022/09/05 14:08:38;;;;;;;0.98;0.73;;;29.00;38.80;;;;;;4904011;28;47019;-60
2022/09/05 14:11:10;;;;;;;1.10;0.80;;;29.00;38.00;;;;;;4910009;28;44622;-57
2022/09/05 14:14:03;;;;;;;2.05;0.93;;;29.00;38.20;;;;;;4915427;28;45082;-62
2022/09/05 14:16:33;;;;;;;3.83;0.93;;;29.00;37.50;;;;;;4921662;28;45327;-58
2022/09/05 14:21:43;;;;;;;1.23;0.85;;;29.00;38.10;;;;;;4893207;28;45250;-59
2022/09/05 14:24:15;;;;;;;0.95;0.60;;;29.00;37.90;;;;;;4902874;28;45448;-61
2022/09/05 14:27:02;;;;;;;2.30;0.80;;;29.10;37.40;;;;;;4923256;28;45152;-61
2022/09/05 14:29:34;;;;;;;0.80;0.80;;;29.10;37.30;;;;;;4916337;28;45169;-59
2022/09/05 14:31:59;;;;;;;1.42;0.57;;;29.10;37.80;;;;;;4900746;28;45207;-61
2022/09/05 14:34:44;;;;;;;0.82;0.70;;;29.10;38.10;;;;;;4917487;28;46435;-62
2022/09/05 14:37:15;;;;;;;0.90;0.60;;;29.10;37.00;;;;;;4923678;28;45308;-64
2022/09/05 14:39:55;;;;;;;5.18;0.80;;;29.10;37.60;;;;;;4916297;28;45328;-65
2022/09/05 14:42:31;;;;;;;3.83;0.80;;;29.10;37.50;;;;;;4897418;28;45519;-67
2022/09/05 14:45:21;;;;;;;3.22;0.77;;;29.10;37.70;;;;;;4885513;28;45193;-65
2022/09/05 14:48:03;;;;;;;1.38;0.80;;;29.10;37.70;;;;;;4915926;28;45334;-65
2022/09/05 14:50:59;;;;;;;1.73;0.88;;;29.00;37.50;;;;;;4904402;28;45594;-64
2022/09/05 14:53:26;;;;;;;2.50;0.77;;;29.00;37.00;;;;;;4899936;28;45091;-66
2022/09/05 14:55:57;;;;;;;2.20;1.00;;;29.00;37.80;;;;;;4898006;28;46178;-65
2022/09/05 14:58:24;;;;;;;1.30;1.00;;;29.00;37.60;;;;;;4902277;28;45347;-66
2022/09/05 15:00:58;;;;;;;3.05;0.93;;;29.00;37.80;;;;;;4880136;28;46985;-65
2022/09/05 15:03:40;;;;;;;1.40;0.70;;;29.00;37.90;;;;;;4898140;28;45197;-65
2022/09/05 15:06:13;;;;;;;1.33;0.77;;;29.00;37.40;;;;;;4883193;28;44681;-65
2022/09/05 15:08:40;;;;;;;1.20;0.90;;;29.00;37.70;;;;;;4900762;28;45847;-65
2022/09/05 15:11:08;;;;;;;2.30;0.70;;;29.00;38.00;;;;;;4914987;28;45259;-66
2022/09/05 15:13:37;;;;;;;0.70;0.68;;;29.00;38.00;;;;;;4904037;28;45353;-64
2022/09/05 15:16:07;;;;;;;1.42;0.90;;;29.00;38.00;;;;;;4913476;28;45416;-65
2022/09/05 15:18:37;;;;;;;1.42;0.80;;;28.90;37.80;;;;;;4889366;28;44647;-65
2022/09/05 15:21:21;;;;;;;1.90;0.90;;;28.90;37.90;;;;;;4922028;28;46195;-65
2022/09/05 15:23:56;;;;;;;0.95;0.70;;;28.90;37.40;;;;;;4911758;28;44600;-65
2022/09/05 15:26:22;;;;;;;0.80;0.80;;;29.00;37.70;;;;;;4886933;28;45277;-65
2022/09/05 15:28:49;;;;;;;2.63;0.90;;;28.90;38.10;;;;;;4918376;28;45477;-65
2022/09/05 15:31:17;;;;;;;0.75;0.75;;;28.90;38.10;;;;;;4917410;28;45952;-65
2022/09/05 15:33:43;;;;;;;1.00;0.70;;;28.90;38.00;;;;;;4917743;28;45263;-64
2022/09/05 15:36:12;;;;;;;1.98;0.95;;;28.90;38.20;;;;;;4907552;28;45248;-65
2022/09/05 15:38:39;;;;;;;3.15;1.05;;;28.90;38.30;;;;;;4922033;28;45342;-65
2022/09/05 15:41:19;;;;;;;1.23;0.95;;;28.80;38.30;;;;;;4915307;28;46184;-65
2022/09/05 15:44:04;;;;;;;1.70;0.75;;;28.80;38.10;;;;;;4906818;28;46183;-65
2022/09/05 15:46:37;;;;;;;1.52;0.90;;;28.80;38.10;;;;;;4896100;28;45713;-65
2022/09/05 15:49:05;;;;;;;0.80;0.80;;;28.80;38.30;;;;;;4917787;28;45261;-64
2022/09/05 15:51:45;;;;;;;1.45;0.98;;;28.80;38.50;;;;;;4898867;28;45360;-68
2022/09/05 15:54:18;;;;;;;1.90;0.93;;;28.80;38.20;;;;;;4885359;28;44934;-67
2022/09/05 15:56:45;;;;;;;3.67;1.00;;;28.80;38.50;;;;;;4914709;28;45285;-66
2022/09/05 15:59:11;;;;;;;1.38;0.85;;;28.70;38.50;;;;;;4905958;28;46461;-68
2022/09/05 16:01:37;;;;;;;2.47;0.90;;;28.70;38.60;;;;;;4912589;28;45679;-70
2022/09/05 16:04:02;;;;;;;1.50;1.00;;;28.70;38.70;;;;;;4905992;28;45258;-64
2022/09/05 16:06:30;;;;;;;1.45;0.80;;;28.70;38.90;;;;;;4895970;28;45321;-64
2022/09/05 16:09:02;;;;;;;0.80;0.80;;;28.70;39.00;;;;;;4898478;28;46430;-66
2022/09/05 16:11:39;;;;;;;2.33;0.90;;;28.70;39.10;;;;;;4918225;28;47420;-65
2022/09/05 16:14:08;;;;;;;1.63;0.70;;;28.60;39.70;;;;;;4912614;28;45706;-66
2022/09/05 16:16:34;;;;;;;1.00;0.65;;;28.60;39.30;;;;;;4912561;28;45396;-67
2022/09/05 16:18:59;;;;;;;1.58;0.85;;;28.60;39.40;;;;;;4897590;28;45656;-65
2022/09/05 16:21:25;;;;;;;1.50;1.00;;;28.50;39.50;;;;;;4896609;28;45357;-66
2022/09/05 16:23:58;;;;;;;0.93;0.90;;;28.50;39.50;;;;;;4916067;28;45335;-66
2022/09/05 16:26:32;;;;;;;2.00;1.13;;;28.50;39.60;;;;;;4916130;28;44892;-65
2022/09/05 16:29:05;;;;;;;1.33;0.77;;;28.50;39.60;;;;;;4917867;28;45276;-65
2022/09/05 16:31:34;;;;;;;1.35;1.10;;;28.50;39.80;;;;;;4894548;28;46050;-67
2022/09/05 16:33:59;;;;;;;2.28;0.75;;;28.50;39.90;;;;;;4911120;28;45141;-65
2022/09/05 16:36:32;;;;;;;4.35;1.02;;;28.40;39.80;;;;;;4911279;28;45314;-69
2022/09/05 16:39:01;;;;;;;;;;;28.40;39.80;;;;;;4914511;28;45810;-65
2022/09/05 16:41:52;;;;;;;1.60;1.00;;;28.40;39.70;;;;;;4916361;28;45856;-66
2022/09/05 16:44:30;;;;;;;2.15;0.88;;;28.40;39.90;;;;;;4896956;28;45414;-66
2022/09/05 16:47:10;;;;;;;2.83;0.88;;;28.40;39.90;;;;;;4897359;28;45232;-67
2022/09/05 16:49:50;;;;;;;2.88;0.75;;;28.40;39.90;;;;;;4910402;28;46313;-65
2022/09/05 16:52:15;;;;;;;1.33;1.00;;;28.40;40.00;;;;;;4912599;28;46024;-65
2022/09/05 16:55:15;;;;;;;1.63;0.90;;;28.30;40.00;;;;;;4892904;28;45157;-65
2022/09/05 16:58:13;;;;;;;1.25;0.70;;;28.30;40.00;;;;;;4888538;28;46006;-65
2022/09/05 17:01:11;;;;;;;2.08;0.93;;;28.30;40.00;;;;;;4894783;28;46051;-65
2022/09/05 17:03:56;;;;;;;1.15;1.05;;;28.30;40.00;;;;;;4864510;28;47096;-66
2022/09/05 17:06:40;;;;;;;2.05;1.08;;;28.30;40.00;;;;;;4915408;28;46437;-65